sensor_id;sensor_type;location;lat;lon;timestamp;temperature;humidity
29777;DHT22;16677;52.224;7.484;2023-05-17T00:01:28;8.90;99.90
29777;DHT22;16677;52.224;7.484;2023-05-17T00:03:55;8.90;99.90
29777;DHT22;16677;52.224;7.484;2023-05-17T00:06:22;8.90;99.90
29777;DHT22;16677;52.224;7.484;2023-05-17T00:08:49;8.80;99.90
29777;DHT22;16677;52.224;7.484;2023-05-17T00:11:16;8.80;99.90
29777;DHT22;16677;52.224;7.484;2023-05-17T00:13:43;8.80;99.90
29777;DHT22;16677;52.224;7.484;2023-05-17T00:16:10;8.80;99.90
29777;DHT22;16677;52.224;7.484;2023-05-17T00:18:39;8.80;99.90
29777;DHT22;16677;52.224;7.484;2023-05-17T00:21:06;8.80;99.90
29777;DHT22;16677;52.224;7.484;2023-05-17T00:23:33;8.80;99.90
29777;DHT22;16677;52.224;7.484;2023-05-17T00:26:00;8.80;99.90
29777;DHT22;16677;52.224;7.484;2023-05-17T00:28:27;8.80;99.90
29777;DHT22;16677;52.224;7.484;2023-05-17T00:30:54;8.80;99.90
29777;DHT22;16677;52.224;7.484;2023-05-17T00:33:21;8.80;99.90
29777;DHT22;16677;52.224;7.484;2023-05-17T00:35:48;8.80;99.90
29777;DHT22;16677;52.224;7.484;2023-05-17T00:38:15;8.80;99.90
29777;DHT22;16677;52.224;7.484;2023-05-17T00:40:41;8.80;99.90
29777;DHT22;16677;52.224;7.484;2023-05-17T00:43:09;8.80;99.90
29777;DHT22;16677;52.224;7.484;2023-05-17T00:45:36;8.80;99.90
29777;DHT22;16677;52.224;7.484;2023-05-17T00:48:03;8.90;99.90
29777;DHT22;16677;52.224;7.484;2023-05-17T00:50:30;8.80;99.90
29777;DHT22;16677;52.224;7.484;2023-05-17T00:52:57;8.90;99.90
29777;DHT22;16677;52.224;7.484;2023-05-17T00:55:25;8.90;99.90
29777;DHT22;16677;52.224;7.484;2023-05-17T00:57:52;8.90;99.90
29777;DHT22;16677;52.224;7.484;2023-05-17T01:00:19;8.90;99.90
29777;DHT22;16677;52.224;7.484;2023-05-17T01:02:46;8.80;99.90
29777;DHT22;16677;52.224;7.484;2023-05-17T01:05:14;8.90;99.90
29777;DHT22;16677;52.224;7.484;2023-05-17T01:07:41;8.90;99.90
29777;DHT22;16677;52.224;7.484;2023-05-17T01:10:08;8.90;99.90
29777;DHT22;16677;52.224;7.484;2023-05-17T01:12:38;8.90;99.90
29777;DHT22;16677;52.224;7.484;2023-05-17T01:21:03;8.90;99.90
29777;DHT22;16677;52.224;7.484;2023-05-17T01:23:58;8.90;99.90
29777;DHT22;16677;52.224;7.484;2023-05-17T01:29:07;8.80;99.90
29777;DHT22;16677;52.224;7.484;2023-05-17T01:31:35;8.90;99.90
29777;DHT22;16677;52.224;7.484;2023-05-17T01:34:06;8.80;99.90
29777;DHT22;16677;52.224;7.484;2023-05-17T01:36:34;8.80;99.90
29777;DHT22;16677;52.224;7.484;2023-05-17T01:39:01;8.80;99.90
29777;DHT22;16677;52.224;7.484;2023-05-17T01:46:46;8.80;99.90
29777;DHT22;16677;52.224;7.484;2023-05-17T01:49:31;8.70;99.90
29777;DHT22;16677;52.224;7.484;2023-05-17T01:54:53;8.60;99.90
29777;DHT22;16677;52.224;7.484;2023-05-17T01:57:32;8.60;99.90
29777;DHT22;16677;52.224;7.484;2023-05-17T02:00:04;8.70;99.90
29777;DHT22;16677;52.224;7.484;2023-05-17T02:02:32;8.80;99.90
29777;DHT22;16677;52.224;7.484;2023-05-17T02:04:59;8.80;1.00
29777;DHT22;16677;52.224;7.484;2023-05-17T02:07:26;8.70;1.00
29777;DHT22;16677;52.224;7.484;2023-05-17T02:09:53;8.70;1.00
29777;DHT22;16677;52.224;7.484;2023-05-17T02:12:20;8.70;1.00
29777;DHT22;16677;52.224;7.484;2023-05-17T02:14:47;8.70;1.00
29777;DHT22;16677;52.224;7.484;2023-05-17T02:17:14;8.70;1.00
29777;DHT22;16677;52.224;7.484;2023-05-17T02:19:41;8.60;1.00
29777;DHT22;16677;52.224;7.484;2023-05-17T02:22:08;8.60;1.00
29777;DHT22;16677;52.224;7.484;2023-05-17T02:24:35;8.60;1.00
29777;DHT22;16677;52.224;7.484;2023-05-17T02:27:02;8.50;1.00
29777;DHT22;16677;52.224;7.484;2023-05-17T02:29:29;8.50;1.00
29777;DHT22;16677;52.224;7.484;2023-05-17T02:31:57;8.50;1.00
29777;DHT22;16677;52.224;7.484;2023-05-17T02:34:24;8.40;1.00
29777;DHT22;16677;52.224;7.484;2023-05-17T02:36:51;8.40;1.00
29777;DHT22;16677;52.224;7.484;2023-05-17T02:39:18;8.30;1.00
29777;DHT22;16677;52.224;7.484;2023-05-17T02:41:45;8.30;1.00
29777;DHT22;16677;52.224;7.484;2023-05-17T02:44:12;8.30;1.00
29777;DHT22;16677;52.224;7.484;2023-05-17T02:46:39;8.20;1.00
29777;DHT22;16677;52.224;7.484;2023-05-17T02:49:06;8.20;1.00
29777;DHT22;16677;52.224;7.484;2023-05-17T02:51:33;8.10;1.00
29777;DHT22;16677;52.224;7.484;2023-05-17T02:54:00;8.10;18.40
29777;DHT22;16677;52.224;7.484;2023-05-17T02:56:27;8.00;79.90
29777;DHT22;16677;52.224;7.484;2023-05-17T02:58:54;8.00;99.90
29777;DHT22;16677;52.224;7.484;2023-05-17T03:01:23;8.00;99.90
29777;DHT22;16677;52.224;7.484;2023-05-17T03:03:50;7.90;99.90
29777;DHT22;16677;52.224;7.484;2023-05-17T03:06:17;7.90;99.90
29777;DHT22;16677;52.224;7.484;2023-05-17T03:08:44;7.80;99.90
29777;DHT22;16677;52.224;7.484;2023-05-17T03:11:11;7.80;99.90
29777;DHT22;16677;52.224;7.484;2023-05-17T03:13:39;7.70;99.90
29777;DHT22;16677;52.224;7.484;2023-05-17T03:16:06;7.70;99.90
29777;DHT22;16677;52.224;7.484;2023-05-17T03:18:36;7.70;99.90
29777;DHT22;16677;52.224;7.484;2023-05-17T03:21:03;7.70;99.90
29777;DHT22;16677;52.224;7.484;2023-05-17T03:23:30;7.70;99.90
29777;DHT22;16677;52.224;7.484;2023-05-17T03:25:57;7.60;99.90
29777;DHT22;16677;52.224;7.484;2023-05-17T03:28:24;7.60;99.90
29777;DHT22;16677;52.224;7.484;2023-05-17T03:30:55;7.60;99.90
29777;DHT22;16677;52.224;7.484;2023-05-17T03:33:22;7.50;99.90
29777;DHT22;16677;52.224;7.484;2023-05-17T03:35:49;7.50;99.90
29777;DHT22;16677;52.224;7.484;2023-05-17T03:38:16;7.50;99.90
29777;DHT22;16677;52.224;7.484;2023-05-17T03:40:43;7.40;99.90
29777;DHT22;16677;52.224;7.484;2023-05-17T03:43:10;7.50;99.90
29777;DHT22;16677;52.224;7.484;2023-05-17T03:45:37;7.50;99.90
29777;DHT22;16677;52.224;7.484;2023-05-17T03:48:04;7.50;99.90
29777;DHT22;16677;52.224;7.484;2023-05-17T03:50:32;7.50;99.90
29777;DHT22;16677;52.224;7.484;2023-05-17T03:52:59;7.50;99.90
29777;DHT22;16677;52.224;7.484;2023-05-17T03:55:26;7.50;99.90
29777;DHT22;16677;52.224;7.484;2023-05-17T03:57:54;7.50;99.90
29777;DHT22;16677;52.224;7.484;2023-05-17T04:00:21;7.50;99.90
29777;DHT22;16677;52.224;7.484;2023-05-17T04:02:50;7.60;99.90
29777;DHT22;16677;52.224;7.484;2023-05-17T04:05:18;7.60;99.90
29777;DHT22;16677;52.224;7.484;2023-05-17T04:07:45;7.60;99.90
29777;DHT22;16677;52.224;7.484;2023-05-17T04:10:12;7.70;99.90
29777;DHT22;16677;52.224;7.484;2023-05-17T04:12:39;7.70;99.90
29777;DHT22;16677;52.224;7.484;2023-05-17T04:15:07;7.70;99.90
29777;DHT22;16677;52.224;7.484;2023-05-17T04:17:34;7.70;99.90
29777;DHT22;16677;52.224;7.484;2023-05-17T04:20:02;7.80;99.90
29777;DHT22;16677;52.224;7.484;2023-05-17T04:22:32;7.80;99.90
29777;DHT22;16677;52.224;7.484;2023-05-17T04:24:59;7.80;98.60
29777;DHT22;16677;52.224;7.484;2023-05-17T04:27:26;7.90;99.60
29777;DHT22;16677;52.224;7.484;2023-05-17T04:29:53;7.90;45.40
29777;DHT22;16677;52.224;7.484;2023-05-17T04:32:20;8.00;10.50
29777;DHT22;16677;52.224;7.484;2023-05-17T04:34:48;8.00;1.00
29777;DHT22;16677;52.224;7.484;2023-05-17T04:37:15;8.10;1.00
29777;DHT22;16677;52.224;7.484;2023-05-17T04:39:42;8.20;1.00
29777;DHT22;16677;52.224;7.484;2023-05-17T04:42:09;8.20;1.00
29777;DHT22;16677;52.224;7.484;2023-05-17T04:44:37;8.20;1.00
29777;DHT22;16677;52.224;7.484;2023-05-17T04:47:04;8.30;1.00
29777;DHT22;16677;52.224;7.484;2023-05-17T04:49:31;8.30;1.00
29777;DHT22;16677;52.224;7.484;2023-05-17T04:51:58;8.40;1.00
29777;DHT22;16677;52.224;7.484;2023-05-17T04:54:25;8.40;1.00
29777;DHT22;16677;52.224;7.484;2023-05-17T04:56:52;8.40;1.00
29777;DHT22;16677;52.224;7.484;2023-05-17T04:59:19;8.40;1.00
29777;DHT22;16677;52.224;7.484;2023-05-17T05:01:47;8.50;1.00
29777;DHT22;16677;52.224;7.484;2023-05-17T05:04:14;8.60;1.00
29777;DHT22;16677;52.224;7.484;2023-05-17T05:06:41;8.60;1.00
29777;DHT22;16677;52.224;7.484;2023-05-17T05:09:08;8.50;1.00
29777;DHT22;16677;52.224;7.484;2023-05-17T05:11:35;8.60;1.00
29777;DHT22;16677;52.224;7.484;2023-05-17T05:14:02;8.70;1.00
29777;DHT22;16677;52.224;7.484;2023-05-17T05:16:29;8.60;1.00
29777;DHT22;16677;52.224;7.484;2023-05-17T05:18:56;8.80;1.00
29777;DHT22;16677;52.224;7.484;2023-05-17T05:21:24;8.80;1.00
29777;DHT22;16677;52.224;7.484;2023-05-17T05:23:51;8.80;1.00
29777;DHT22;16677;52.224;7.484;2023-05-17T05:26:18;8.90;1.00
29777;DHT22;16677;52.224;7.484;2023-05-17T05:28:45;9.10;1.00
29777;DHT22;16677;52.224;7.484;2023-05-17T05:31:12;9.20;99.90
29777;DHT22;16677;52.224;7.484;2023-05-17T05:33:39;9.30;99.90
29777;DHT22;16677;52.224;7.484;2023-05-17T05:36:06;9.40;99.90
29777;DHT22;16677;52.224;7.484;2023-05-17T05:38:33;9.30;99.90
29777;DHT22;16677;52.224;7.484;2023-05-17T05:41:00;9.60;99.90
29777;DHT22;16677;52.224;7.484;2023-05-17T05:43:27;9.50;99.90
29777;DHT22;16677;52.224;7.484;2023-05-17T05:45:54;9.80;1.00
29777;DHT22;16677;52.224;7.484;2023-05-17T05:48:21;9.70;1.00
29777;DHT22;16677;52.224;7.484;2023-05-17T05:50:48;9.80;1.00
29777;DHT22;16677;52.224;7.484;2023-05-17T05:53:15;10.20;99.90
29777;DHT22;16677;52.224;7.484;2023-05-17T05:55:45;9.70;1.00
29777;DHT22;16677;52.224;7.484;2023-05-17T05:58:15;10.20;99.90
29777;DHT22;16677;52.224;7.484;2023-05-17T06:00:42;9.80;4.90
29777;DHT22;16677;52.224;7.484;2023-05-17T06:03:09;10.00;47.20
29777;DHT22;16677;52.224;7.484;2023-05-17T06:05:36;10.50;70.80
29777;DHT22;16677;52.224;7.484;2023-05-17T06:08:03;10.00;1.00
29777;DHT22;16677;52.224;7.484;2023-05-17T06:10:31;10.50;1.00
29777;DHT22;16677;52.224;7.484;2023-05-17T06:12:58;10.00;32.00
29777;DHT22;16677;52.224;7.484;2023-05-17T06:15:25;10.00;99.90
29777;DHT22;16677;52.224;7.484;2023-05-17T06:17:53;10.30;99.90
29777;DHT22;16677;52.224;7.484;2023-05-17T06:20:20;10.30;99.90
29777;DHT22;16677;52.224;7.484;2023-05-17T06:22:47;10.40;1.00
29777;DHT22;16677;52.224;7.484;2023-05-17T06:25:14;10.50;99.90
29777;DHT22;16677;52.224;7.484;2023-05-17T06:27:41;10.50;1.00
29777;DHT22;16677;52.224;7.484;2023-05-17T06:30:09;10.50;1.00
29777;DHT22;16677;52.224;7.484;2023-05-17T06:32:36;10.70;1.00
29777;DHT22;16677;52.224;7.484;2023-05-17T06:35:04;11.00;1.00
29777;DHT22;16677;52.224;7.484;2023-05-17T06:37:32;10.90;1.00
29777;DHT22;16677;52.224;7.484;2023-05-17T06:40:03;10.70;99.90
29777;DHT22;16677;52.224;7.484;2023-05-17T06:42:40;10.90;99.90
29777;DHT22;16677;52.224;7.484;2023-05-17T06:45:07;10.50;1.00
29777;DHT22;16677;52.224;7.484;2023-05-17T06:47:35;9.90;1.00
29777;DHT22;16677;52.224;7.484;2023-05-17T06:50:02;9.90;1.00
29777;DHT22;16677;52.224;7.484;2023-05-17T06:52:29;9.80;99.90
29777;DHT22;16677;52.224;7.484;2023-05-17T06:54:56;9.70;99.90
29777;DHT22;16677;52.224;7.484;2023-05-17T06:57:23;10.00;99.90
29777;DHT22;16677;52.224;7.484;2023-05-17T06:59:50;10.00;99.90
29777;DHT22;16677;52.224;7.484;2023-05-17T07:02:18;10.40;1.00
29777;DHT22;16677;52.224;7.484;2023-05-17T07:04:45;11.00;1.00
29777;DHT22;16677;52.224;7.484;2023-05-17T07:07:12;11.10;1.00
29777;DHT22;16677;52.224;7.484;2023-05-17T07:09:39;11.00;99.90
29777;DHT22;16677;52.224;7.484;2023-05-17T07:12:06;11.10;1.00
29777;DHT22;16677;52.224;7.484;2023-05-17T07:14:33;10.80;1.00
29777;DHT22;16677;52.224;7.484;2023-05-17T07:17:01;10.50;1.00
29777;DHT22;16677;52.224;7.484;2023-05-17T07:19:28;10.80;95.60
29777;DHT22;16677;52.224;7.484;2023-05-17T07:21:55;10.40;99.90
29777;DHT22;16677;52.224;7.484;2023-05-17T07:24:23;10.30;1.00
29777;DHT22;16677;52.224;7.484;2023-05-17T07:26:51;10.40;99.90
29777;DHT22;16677;52.224;7.484;2023-05-17T07:29:18;10.30;99.90
29777;DHT22;16677;52.224;7.484;2023-05-17T07:31:45;10.20;1.00
29777;DHT22;16677;52.224;7.484;2023-05-17T07:34:12;10.40;1.00
29777;DHT22;16677;52.224;7.484;2023-05-17T07:36:39;10.70;1.00
29777;DHT22;16677;52.224;7.484;2023-05-17T07:39:06;10.70;99.90
29777;DHT22;16677;52.224;7.484;2023-05-17T07:41:35;10.40;1.00
29777;DHT22;16677;52.224;7.484;2023-05-17T07:44:02;10.30;99.90
29777;DHT22;16677;52.224;7.484;2023-05-17T07:46:29;10.40;99.90
29777;DHT22;16677;52.224;7.484;2023-05-17T07:48:56;10.50;1.00
29777;DHT22;16677;52.224;7.484;2023-05-17T07:51:25;10.30;1.00
29777;DHT22;16677;52.224;7.484;2023-05-17T07:53:52;10.80;1.00
29777;DHT22;16677;52.224;7.484;2023-05-17T07:56:19;11.50;1.00
29777;DHT22;16677;52.224;7.484;2023-05-17T07:58:46;11.80;99.90
29777;DHT22;16677;52.224;7.484;2023-05-17T08:01:13;11.30;99.90
29777;DHT22;16677;52.224;7.484;2023-05-17T08:03:40;11.20;1.00
29777;DHT22;16677;52.224;7.484;2023-05-17T08:06:13;11.50;1.00
29777;DHT22;16677;52.224;7.484;2023-05-17T08:08:41;11.30;99.90
29777;DHT22;16677;52.224;7.484;2023-05-17T08:11:09;11.70;99.90
29777;DHT22;16677;52.224;7.484;2023-05-17T08:13:39;12.40;12.40
29777;DHT22;16677;52.224;7.484;2023-05-17T08:16:07;13.00;99.90
29777;DHT22;16677;52.224;7.484;2023-05-17T08:18:40;12.80;99.90
29777;DHT22;16677;52.224;7.484;2023-05-17T08:21:08;12.60;99.90
29777;DHT22;16677;52.224;7.484;2023-05-17T08:23:35;12.00;48.20
29777;DHT22;16677;52.224;7.484;2023-05-17T08:26:02;11.70;99.90
29777;DHT22;16677;52.224;7.484;2023-05-17T08:28:29;11.90;1.00
29777;DHT22;16677;52.224;7.484;2023-05-17T08:30:56;12.20;25.70
29777;DHT22;16677;52.224;7.484;2023-05-17T08:33:23;12.50;3.20
29777;DHT22;16677;52.224;7.484;2023-05-17T08:35:51;12.20;37.80
29777;DHT22;16677;52.224;7.484;2023-05-17T08:38:22;12.00;28.60
29777;DHT22;16677;52.224;7.484;2023-05-17T08:40:53;11.90;74.10
29777;DHT22;16677;52.224;7.484;2023-05-17T08:43:21;11.70;66.90
29777;DHT22;16677;52.224;7.484;2023-05-17T08:45:52;11.70;99.90
29777;DHT22;16677;52.224;7.484;2023-05-17T08:48:20;11.10;99.90
29777;DHT22;16677;52.224;7.484;2023-05-17T08:50:49;11.50;84.80
29777;DHT22;16677;52.224;7.484;2023-05-17T08:53:16;11.30;99.90
29777;DHT22;16677;52.224;7.484;2023-05-17T08:55:44;11.90;37.00
29777;DHT22;16677;52.224;7.484;2023-05-17T08:58:13;12.40;1.00
29777;DHT22;16677;52.224;7.484;2023-05-17T09:00:44;12.40;1.00
29777;DHT22;16677;52.224;7.484;2023-05-17T09:03:14;12.40;1.00
29777;DHT22;16677;52.224;7.484;2023-05-17T09:05:46;11.90;21.70
29777;DHT22;16677;52.224;7.484;2023-05-17T09:08:16;11.50;78.60
29777;DHT22;16677;52.224;7.484;2023-05-17T09:10:43;11.50;99.90
29777;DHT22;16677;52.224;7.484;2023-05-17T09:13:11;11.60;99.90
29777;DHT22;16677;52.224;7.484;2023-05-17T09:15:46;11.70;98.60
29777;DHT22;16677;52.224;7.484;2023-05-17T09:18:13;11.80;64.40
29777;DHT22;16677;52.224;7.484;2023-05-17T09:20:46;11.60;99.90
29777;DHT22;16677;52.224;7.484;2023-05-17T09:23:17;11.80;12.60
29777;DHT22;16677;52.224;7.484;2023-05-17T09:25:47;12.10;1.00
29777;DHT22;16677;52.224;7.484;2023-05-17T09:28:15;12.70;1.00
29777;DHT22;16677;52.224;7.484;2023-05-17T09:30:46;12.90;1.00
29777;DHT22;16677;52.224;7.484;2023-05-17T09:33:14;12.10;1.00
29777;DHT22;16677;52.224;7.484;2023-05-17T09:35:43;11.70;1.00
29777;DHT22;16677;52.224;7.484;2023-05-17T09:38:14;11.30;7.30
29777;DHT22;16677;52.224;7.484;2023-05-17T09:40:42;11.50;8.70
29777;DHT22;16677;52.224;7.484;2023-05-17T09:43:10;12.00;1.00
29777;DHT22;16677;52.224;7.484;2023-05-17T09:45:38;11.80;1.00
29777;DHT22;16677;52.224;7.484;2023-05-17T09:50:42;12.00;1.00
29777;DHT22;16677;52.224;7.484;2023-05-17T09:55:57;12.10;1.00
29777;DHT22;16677;52.224;7.484;2023-05-17T09:58:26;12.60;1.00
29777;DHT22;16677;52.224;7.484;2023-05-17T10:00:58;12.50;1.00
29777;DHT22;16677;52.224;7.484;2023-05-17T10:03:29;12.90;1.00
29777;DHT22;16677;52.224;7.484;2023-05-17T10:05:59;12.60;1.00
29777;DHT22;16677;52.224;7.484;2023-05-17T10:08:29;12.60;1.00
29777;DHT22;16677;52.224;7.484;2023-05-17T10:10:57;12.50;1.00
29777;DHT22;16677;52.224;7.484;2023-05-17T10:13:32;12.30;1.00
29777;DHT22;16677;52.224;7.484;2023-05-17T10:16:01;12.70;1.00
29777;DHT22;16677;52.224;7.484;2023-05-17T10:18:28;12.70;1.00
29777;DHT22;16677;52.224;7.484;2023-05-17T10:20:57;13.20;1.00
29777;DHT22;16677;52.224;7.484;2023-05-17T10:23:24;13.10;1.00
29777;DHT22;16677;52.224;7.484;2023-05-17T10:25:52;13.40;2.10
29777;DHT22;16677;52.224;7.484;2023-05-17T10:28:19;13.40;1.00
29777;DHT22;16677;52.224;7.484;2023-05-17T10:30:46;13.00;1.00
29777;DHT22;16677;52.224;7.484;2023-05-17T10:33:14;12.40;1.00
29777;DHT22;16677;52.224;7.484;2023-05-17T10:35:42;12.60;96.60
29777;DHT22;16677;52.224;7.484;2023-05-17T10:38:09;13.20;99.90
29777;DHT22;16677;52.224;7.484;2023-05-17T10:40:37;13.30;99.90
29777;DHT22;16677;52.224;7.484;2023-05-17T10:43:05;13.10;99.90
29777;DHT22;16677;52.224;7.484;2023-05-17T10:45:34;13.50;99.90
29777;DHT22;16677;52.224;7.484;2023-05-17T10:48:05;13.30;99.90
29777;DHT22;16677;52.224;7.484;2023-05-17T10:50:36;13.40;99.90
29777;DHT22;16677;52.224;7.484;2023-05-17T10:53:08;13.20;99.90
29777;DHT22;16677;52.224;7.484;2023-05-17T10:55:39;13.00;99.90
29777;DHT22;16677;52.224;7.484;2023-05-17T10:58:14;13.00;99.90
29777;DHT22;16677;52.224;7.484;2023-05-17T11:00:44;12.90;99.90
29777;DHT22;16677;52.224;7.484;2023-05-17T11:03:18;13.50;99.90
29777;DHT22;16677;52.224;7.484;2023-05-17T11:09:05;13.70;2.30
29777;DHT22;16677;52.224;7.484;2023-05-17T11:12:25;13.60;99.90
29777;DHT22;16677;52.224;7.484;2023-05-17T11:17:11;13.70;94.20
29777;DHT22;16677;52.224;7.484;2023-05-17T11:22:21;13.50;99.90
29777;DHT22;16677;52.224;7.484;2023-05-17T11:24:53;13.30;99.90
29777;DHT22;16677;52.224;7.484;2023-05-17T11:27:23;13.20;88.30
29777;DHT22;16677;52.224;7.484;2023-05-17T11:29:54;13.50;98.70
29777;DHT22;16677;52.224;7.484;2023-05-17T11:32:29;13.50;56.30
29777;DHT22;16677;52.224;7.484;2023-05-17T11:34:58;12.90;50.30
29777;DHT22;16677;52.224;7.484;2023-05-17T11:37:28;13.60;48.50
29777;DHT22;16677;52.224;7.484;2023-05-17T11:39:59;14.00;1.00
29777;DHT22;16677;52.224;7.484;2023-05-17T11:42:33;13.80;12.50
29777;DHT22;16677;52.224;7.484;2023-05-17T11:45:04;13.30;74.00
29777;DHT22;16677;52.224;7.484;2023-05-17T11:47:32;12.80;73.70
29777;DHT22;16677;52.224;7.484;2023-05-17T11:49:59;13.10;93.80
29777;DHT22;16677;52.224;7.484;2023-05-17T11:52:28;13.80;99.90
29777;DHT22;16677;52.224;7.484;2023-05-17T11:54:56;13.60;99.90
29777;DHT22;16677;52.224;7.484;2023-05-17T11:57:29;12.80;99.90
29777;DHT22;16677;52.224;7.484;2023-05-17T12:00:01;12.70;98.40
29777;DHT22;16677;52.224;7.484;2023-05-17T12:02:31;12.60;99.90
29777;DHT22;16677;52.224;7.484;2023-05-17T12:04:58;12.60;76.60
29777;DHT22;16677;52.224;7.484;2023-05-17T12:07:25;12.60;99.90
29777;DHT22;16677;52.224;7.484;2023-05-17T12:09:53;12.40;99.90
29777;DHT22;16677;52.224;7.484;2023-05-17T12:12:20;12.70;99.90
29777;DHT22;16677;52.224;7.484;2023-05-17T12:14:48;13.30;83.50
29777;DHT22;16677;52.224;7.484;2023-05-17T12:17:26;14.10;99.90
29777;DHT22;16677;52.224;7.484;2023-05-17T12:20:08;14.30;22.40
29777;DHT22;16677;52.224;7.484;2023-05-17T12:22:55;14.40;34.70
29777;DHT22;16677;52.224;7.484;2023-05-17T12:25:23;14.40;38.90
29777;DHT22;16677;52.224;7.484;2023-05-17T12:30:52;13.60;18.20
29777;DHT22;16677;52.224;7.484;2023-05-17T12:33:20;14.20;17.90
29777;DHT22;16677;52.224;7.484;2023-05-17T12:35:48;13.90;26.00
29777;DHT22;16677;52.224;7.484;2023-05-17T12:38:15;13.80;24.40
29777;DHT22;16677;52.224;7.484;2023-05-17T12:40:43;13.20;65.60
29777;DHT22;16677;52.224;7.484;2023-05-17T12:43:10;13.60;41.30
29777;DHT22;16677;52.224;7.484;2023-05-17T12:45:40;14.20;73.00
29777;DHT22;16677;52.224;7.484;2023-05-17T12:48:07;14.10;69.40
29777;DHT22;16677;52.224;7.484;2023-05-17T12:50:35;14.00;65.00
29777;DHT22;16677;52.224;7.484;2023-05-17T12:53:07;14.10;99.90
29777;DHT22;16677;52.224;7.484;2023-05-17T12:55:37;13.80;35.80
29777;DHT22;16677;52.224;7.484;2023-05-17T12:58:05;13.50;21.50
29777;DHT22;16677;52.224;7.484;2023-05-17T13:00:32;13.30;1.00
29777;DHT22;16677;52.224;7.484;2023-05-17T13:02:59;13.50;49.80
29777;DHT22;16677;52.224;7.484;2023-05-17T13:05:27;13.70;1.00
29777;DHT22;16677;52.224;7.484;2023-05-17T13:07:54;14.20;1.00
29777;DHT22;16677;52.224;7.484;2023-05-17T13:10:26;14.10;1.00
29777;DHT22;16677;52.224;7.484;2023-05-17T13:12:58;14.00;1.00
29777;DHT22;16677;52.224;7.484;2023-05-17T13:15:29;13.70;1.00
29777;DHT22;16677;52.224;7.484;2023-05-17T13:17:58;13.80;1.00
29777;DHT22;16677;52.224;7.484;2023-05-17T13:20:26;13.80;1.00
29777;DHT22;16677;52.224;7.484;2023-05-17T13:22:54;14.00;1.00
29777;DHT22;16677;52.224;7.484;2023-05-17T13:25:21;13.90;1.00
29777;DHT22;16677;52.224;7.484;2023-05-17T13:27:48;13.50;1.00
29777;DHT22;16677;52.224;7.484;2023-05-17T13:30:15;13.90;1.00
29777;DHT22;16677;52.224;7.484;2023-05-17T13:32:43;14.20;1.00
29777;DHT22;16677;52.224;7.484;2023-05-17T13:35:10;14.80;1.00
29777;DHT22;16677;52.224;7.484;2023-05-17T13:37:38;13.60;1.00
29777;DHT22;16677;52.224;7.484;2023-05-17T13:40:06;13.80;1.00
29777;DHT22;16677;52.224;7.484;2023-05-17T13:42:34;14.00;1.00
29777;DHT22;16677;52.224;7.484;2023-05-17T13:45:01;13.90;1.00
29777;DHT22;16677;52.224;7.484;2023-05-17T13:47:28;13.90;1.00
29777;DHT22;16677;52.224;7.484;2023-05-17T13:50:01;13.90;1.00
29777;DHT22;16677;52.224;7.484;2023-05-17T13:52:29;13.90;1.00
29777;DHT22;16677;52.224;7.484;2023-05-17T13:54:59;13.80;1.00
29777;DHT22;16677;52.224;7.484;2023-05-17T13:57:26;14.00;1.00
29777;DHT22;16677;52.224;7.484;2023-05-17T13:59:53;14.50;1.00
29777;DHT22;16677;52.224;7.484;2023-05-17T14:02:20;14.40;1.00
29777;DHT22;16677;52.224;7.484;2023-05-17T14:04:47;14.80;1.00
29777;DHT22;16677;52.224;7.484;2023-05-17T14:07:14;14.40;1.00
29777;DHT22;16677;52.224;7.484;2023-05-17T14:09:42;14.00;1.00
29777;DHT22;16677;52.224;7.484;2023-05-17T14:12:09;13.80;1.00
29777;DHT22;16677;52.224;7.484;2023-05-17T14:14:37;14.10;1.00
29777;DHT22;16677;52.224;7.484;2023-05-17T14:17:04;13.70;1.00
29777;DHT22;16677;52.224;7.484;2023-05-17T14:19:31;14.10;1.00
29777;DHT22;16677;52.224;7.484;2023-05-17T14:21:59;14.50;1.00
29777;DHT22;16677;52.224;7.484;2023-05-17T14:24:26;14.10;1.00
29777;DHT22;16677;52.224;7.484;2023-05-17T14:26:53;14.20;1.00
29777;DHT22;16677;52.224;7.484;2023-05-17T14:29:20;14.50;1.00
29777;DHT22;16677;52.224;7.484;2023-05-17T14:31:47;14.90;1.00
29777;DHT22;16677;52.224;7.484;2023-05-17T14:34:14;15.40;1.00
29777;DHT22;16677;52.224;7.484;2023-05-17T14:36:42;15.60;1.00
29777;DHT22;16677;52.224;7.484;2023-05-17T14:39:09;14.40;1.00
29777;DHT22;16677;52.224;7.484;2023-05-17T14:41:36;14.50;1.00
29777;DHT22;16677;52.224;7.484;2023-05-17T14:44:04;14.30;1.00
29777;DHT22;16677;52.224;7.484;2023-05-17T14:46:32;14.00;1.00
29777;DHT22;16677;52.224;7.484;2023-05-17T14:49:00;14.40;1.00
29777;DHT22;16677;52.224;7.484;2023-05-17T14:51:27;14.70;1.00
29777;DHT22;16677;52.224;7.484;2023-05-17T14:53:54;14.60;1.00
29777;DHT22;16677;52.224;7.484;2023-05-17T14:56:21;14.80;1.00
29777;DHT22;16677;52.224;7.484;2023-05-17T14:58:48;14.70;1.00
29777;DHT22;16677;52.224;7.484;2023-05-17T15:01:15;14.30;5.80
29777;DHT22;16677;52.224;7.484;2023-05-17T15:03:43;14.20;8.30
29777;DHT22;16677;52.224;7.484;2023-05-17T15:06:10;14.30;1.00
29777;DHT22;16677;52.224;7.484;2023-05-17T15:08:37;14.20;2.70
29777;DHT22;16677;52.224;7.484;2023-05-17T15:11:04;14.50;9.00
29777;DHT22;16677;52.224;7.484;2023-05-17T15:13:31;14.70;7.90
29777;DHT22;16677;52.224;7.484;2023-05-17T15:15:58;14.40;1.00
29777;DHT22;16677;52.224;7.484;2023-05-17T15:18:25;14.20;5.30
29777;DHT22;16677;52.224;7.484;2023-05-17T15:20:52;14.30;1.00
29777;DHT22;16677;52.224;7.484;2023-05-17T15:23:19;14.80;1.90
29777;DHT22;16677;52.224;7.484;2023-05-17T15:25:46;14.80;1.00
29777;DHT22;16677;52.224;7.484;2023-05-17T15:28:13;14.70;1.00
29777;DHT22;16677;52.224;7.484;2023-05-17T15:30:40;14.30;41.20
29777;DHT22;16677;52.224;7.484;2023-05-17T15:33:07;14.10;1.00
29777;DHT22;16677;52.224;7.484;2023-05-17T15:35:34;13.90;3.30
29777;DHT22;16677;52.224;7.484;2023-05-17T15:38:03;13.90;6.90
29777;DHT22;16677;52.224;7.484;2023-05-17T15:40:33;14.20;29.80
29777;DHT22;16677;52.224;7.484;2023-05-17T15:43:00;14.50;21.20
29777;DHT22;16677;52.224;7.484;2023-05-17T15:45:27;14.60;24.60
29777;DHT22;16677;52.224;7.484;2023-05-17T15:47:54;14.80;25.50
29777;DHT22;16677;52.224;7.484;2023-05-17T15:50:22;15.00;1.00
29777;DHT22;16677;52.224;7.484;2023-05-17T15:52:49;14.40;1.00
29777;DHT22;16677;52.224;7.484;2023-05-17T15:55:16;13.80;1.00
29777;DHT22;16677;52.224;7.484;2023-05-17T15:57:43;13.70;1.00
29777;DHT22;16677;52.224;7.484;2023-05-17T16:00:12;13.70;1.00
29777;DHT22;16677;52.224;7.484;2023-05-17T16:02:39;13.90;1.00
29777;DHT22;16677;52.224;7.484;2023-05-17T16:05:06;14.40;1.00
29777;DHT22;16677;52.224;7.484;2023-05-17T16:07:34;15.00;11.50
29777;DHT22;16677;52.224;7.484;2023-05-17T16:10:01;15.00;1.00
29777;DHT22;16677;52.224;7.484;2023-05-17T16:12:28;15.00;1.00
29777;DHT22;16677;52.224;7.484;2023-05-17T16:14:55;15.20;1.00
29777;DHT22;16677;52.224;7.484;2023-05-17T16:17:22;14.90;1.00
29777;DHT22;16677;52.224;7.484;2023-05-17T16:19:49;14.50;1.00
29777;DHT22;16677;52.224;7.484;2023-05-17T16:22:16;14.20;1.00
29777;DHT22;16677;52.224;7.484;2023-05-17T16:24:43;14.30;1.00